sensor_id;sensor_type;location;lat;lon;timestamp;P1;durP1;ratioP1;P2;durP2;ratioP2
11173;SDS011;5643;50.856;12.088;2022-12-26T00:01:26;3.07;;;2.87;;
11173;SDS011;5643;50.856;12.088;2022-12-26T00:03:54;2.97;;;2.77;;
11173;SDS011;5643;50.856;12.088;2022-12-26T00:06:22;2.93;;;2.63;;
11173;SDS011;5643;50.856;12.088;2022-12-26T00:08:51;3.00;;;2.60;;
11173;SDS011;5643;50.856;12.088;2022-12-26T00:11:19;2.70;;;2.50;;
11173;SDS011;5643;50.856;12.088;2022-12-26T00:13:51;2.77;;;2.57;;
11173;SDS011;5643;50.856;12.088;2022-12-26T00:16:19;2.60;;;2.40;;
11173;SDS011;5643;50.856;12.088;2022-12-26T00:18:47;2.87;;;2.60;;
11173;SDS011;5643;50.856;12.088;2022-12-26T00:21:15;2.40;;;2.23;;
11173;SDS011;5643;50.856;12.088;2022-12-26T00:23:43;2.83;;;2.40;;
11173;SDS011;5643;50.856;12.088;2022-12-26T00:26:11;2.77;;;2.57;;
11173;SDS011;5643;50.856;12.088;2022-12-26T00:28:39;2.37;;;2.17;;
11173;SDS011;5643;50.856;12.088;2022-12-26T00:31:08;2.50;;;2.30;;
11173;SDS011;5643;50.856;12.088;2022-12-26T00:33:35;2.70;;;2.50;;
11173;SDS011;5643;50.856;12.088;2022-12-26T00:36:03;2.63;;;2.43;;
11173;SDS011;5643;50.856;12.088;2022-12-26T00:38:31;2.67;;;2.47;;
11173;SDS011;5643;50.856;12.088;2022-12-26T01:41:51;2.70;;;2.50;;
11173;SDS011;5643;50.856;12.088;2022-12-26T01:47:05;3.10;;;2.50;;
11173;SDS011;5643;50.856;12.088;2022-12-26T01:49:34;2.23;;;2.03;;
11173;SDS011;5643;50.856;12.088;2022-12-26T01:52:02;2.73;;;2.53;;
11173;SDS011;5643;50.856;12.088;2022-12-26T01:54:31;2.50;;;2.30;;
11173;SDS011;5643;50.856;12.088;2022-12-26T01:57:00;2.53;;;2.33;;
11173;SDS011;5643;50.856;12.088;2022-12-26T01:59:30;2.50;;;2.30;;
11173;SDS011;5643;50.856;12.088;2022-12-26T02:05:02;2.40;;;2.20;;
11173;SDS011;5643;50.856;12.088;2022-12-26T02:07:46;2.27;;;2.07;;
11173;SDS011;5643;50.856;12.088;2022-12-26T02:10:14;2.27;;;2.00;;
11173;SDS011;5643;50.856;12.088;2022-12-26T02:12:45;2.10;;;1.90;;
11173;SDS011;5643;50.856;12.088;2022-12-26T02:15:14;2.17;;;1.97;;
11173;SDS011;5643;50.856;12.088;2022-12-26T02:17:42;2.03;;;1.93;;
11173;SDS011;5643;50.856;12.088;2022-12-26T02:20:13;2.00;;;1.90;;
11173;SDS011;5643;50.856;12.088;2022-12-26T02:25:30;2.30;;;2.20;;
11173;SDS011;5643;50.856;12.088;2022-12-26T02:28:18;2.83;;;2.20;;
11173;SDS011;5643;50.856;12.088;2022-12-26T02:30:51;2.20;;;2.00;;
11173;SDS011;5643;50.856;12.088;2022-12-26T02:33:26;2.10;;;1.97;;
11173;SDS011;5643;50.856;12.088;2022-12-26T02:38:43;2.77;;;2.10;;
11173;SDS011;5643;50.856;12.088;2022-12-26T05:24:50;1.70;;;1.60;;
11173;SDS011;5643;50.856;12.088;2022-12-26T05:27:37;1.77;;;1.67;;
11173;SDS011;5643;50.856;12.088;2022-12-26T05:30:22;1.80;;;1.70;;
11173;SDS011;5643;50.856;12.088;2022-12-26T05:32:49;2.00;;;1.70;;
11173;SDS011;5643;50.856;12.088;2022-12-26T05:35:35;3.83;;;1.87;;
11173;SDS011;5643;50.856;12.088;2022-12-26T05:38:03;1.70;;;1.60;;
11173;SDS011;5643;50.856;12.088;2022-12-26T05:40:31;1.70;;;1.60;;
11173;SDS011;5643;50.856;12.088;2022-12-26T05:42:59;2.70;;;1.80;;
11173;SDS011;5643;50.856;12.088;2022-12-26T05:45:26;2.10;;;1.90;;
11173;SDS011;5643;50.856;12.088;2022-12-26T05:47:56;1.80;;;1.70;;
11173;SDS011;5643;50.856;12.088;2022-12-26T05:50:24;1.67;;;1.53;;
11173;SDS011;5643;50.856;12.088;2022-12-26T05:52:51;1.77;;;1.67;;
11173;SDS011;5643;50.856;12.088;2022-12-26T05:55:18;2.60;;;1.90;;
11173;SDS011;5643;50.856;12.088;2022-12-26T05:57:47;2.10;;;1.90;;
11173;SDS011;5643;50.856;12.088;2022-12-26T06:00:14;2.07;;;1.87;;
11173;SDS011;5643;50.856;12.088;2022-12-26T06:02:42;1.80;;;1.70;;
11173;SDS011;5643;50.856;12.088;2022-12-26T06:05:09;2.60;;;1.70;;
11173;SDS011;5643;50.856;12.088;2022-12-26T06:07:36;3.27;;;2.17;;
11173;SDS011;5643;50.856;12.088;2022-12-26T06:10:04;1.80;;;1.70;;
11173;SDS011;5643;50.856;12.088;2022-12-26T06:12:32;2.20;;;1.73;;
11173;SDS011;5643;50.856;12.088;2022-12-26T06:15:00;1.70;;;1.60;;
11173;SDS011;5643;50.856;12.088;2022-12-26T06:17:28;2.23;;;1.83;;
11173;SDS011;5643;50.856;12.088;2022-12-26T06:19:55;2.23;;;2.03;;
11173;SDS011;5643;50.856;12.088;2022-12-26T06:22:22;2.20;;;2.00;;
11173;SDS011;5643;50.856;12.088;2022-12-26T06:24:50;1.80;;;1.70;;
11173;SDS011;5643;50.856;12.088;2022-12-26T06:27:17;1.73;;;1.60;;
11173;SDS011;5643;50.856;12.088;2022-12-26T06:29:45;2.03;;;1.90;;
11173;SDS011;5643;50.856;12.088;2022-12-26T06:32:14;1.93;;;1.80;;
11173;SDS011;5643;50.856;12.088;2022-12-26T06:34:42;2.60;;;1.80;;
11173;SDS011;5643;50.856;12.088;2022-12-26T06:37:09;2.07;;;1.87;;
11173;SDS011;5643;50.856;12.088;2022-12-26T06:39:36;1.90;;;1.80;;
11173;SDS011;5643;50.856;12.088;2022-12-26T06:42:04;2.27;;;2.07;;
11173;SDS011;5643;50.856;12.088;2022-12-26T06:44:31;1.80;;;1.57;;
11173;SDS011;5643;50.856;12.088;2022-12-26T06:46:58;2.50;;;1.90;;
11173;SDS011;5643;50.856;12.088;2022-12-26T06:49:27;1.93;;;1.83;;
11173;SDS011;5643;50.856;12.088;2022-12-26T06:51:54;2.17;;;1.90;;
11173;SDS011;5643;50.856;12.088;2022-12-26T06:54:21;2.20;;;1.97;;
11173;SDS011;5643;50.856;12.088;2022-12-26T06:56:51;1.57;;;1.47;;
11173;SDS011;5643;50.856;12.088;2022-12-26T06:59:19;1.77;;;1.67;;
11173;SDS011;5643;50.856;12.088;2022-12-26T07:01:46;2.13;;;1.77;;
11173;SDS011;5643;50.856;12.088;2022-12-26T07:04:14;2.03;;;1.50;;
11173;SDS011;5643;50.856;12.088;2022-12-26T07:06:42;1.60;;;1.50;;
11173;SDS011;5643;50.856;12.088;2022-12-26T07:09:11;2.10;;;1.50;;
11173;SDS011;5643;50.856;12.088;2022-12-26T07:11:39;1.20;;;1.20;;
11173;SDS011;5643;50.856;12.088;2022-12-26T07:14:07;1.70;;;1.60;;
11173;SDS011;5643;50.856;12.088;2022-12-26T07:16:34;1.87;;;1.60;;
11173;SDS011;5643;50.856;12.088;2022-12-26T07:19:02;1.83;;;1.73;;
11173;SDS011;5643;50.856;12.088;2022-12-26T07:21:30;1.70;;;1.60;;
11173;SDS011;5643;50.856;12.088;2022-12-26T07:23:58;2.20;;;2.00;;
11173;SDS011;5643;50.856;12.088;2022-12-26T07:26:26;1.90;;;1.60;;
11173;SDS011;5643;50.856;12.088;2022-12-26T07:28:53;1.80;;;1.70;;
11173;SDS011;5643;50.856;12.088;2022-12-26T07:31:21;1.80;;;1.70;;
11173;SDS011;5643;50.856;12.088;2022-12-26T07:33:49;2.00;;;1.80;;
11173;SDS011;5643;50.856;12.088;2022-12-26T07:36:17;2.90;;;2.10;;
11173;SDS011;5643;50.856;12.088;2022-12-26T07:38:44;2.20;;;1.90;;
11173;SDS011;5643;50.856;12.088;2022-12-26T07:41:13;3.27;;;2.30;;
11173;SDS011;5643;50.856;12.088;2022-12-26T07:43:58;1.93;;;1.60;;
11173;SDS011;5643;50.856;12.088;2022-12-26T07:46:25;1.93;;;1.73;;
11173;SDS011;5643;50.856;12.088;2022-12-26T07:48:52;2.10;;;1.70;;
11173;SDS011;5643;50.856;12.088;2022-12-26T07:51:19;2.03;;;1.77;;
11173;SDS011;5643;50.856;12.088;2022-12-26T07:53:47;1.70;;;1.60;;
11173;SDS011;5643;50.856;12.088;2022-12-26T07:56:16;1.60;;;1.50;;
11173;SDS011;5643;50.856;12.088;2022-12-26T07:58:43;2.00;;;1.80;;
11173;SDS011;5643;50.856;12.088;2022-12-26T08:01:14;1.83;;;1.40;;
11173;SDS011;5643;50.856;12.088;2022-12-26T08:03:42;1.50;;;1.40;;
11173;SDS011;5643;50.856;12.088;2022-12-26T08:06:09;1.90;;;1.77;;
11173;SDS011;5643;50.856;12.088;2022-12-26T08:08:37;1.60;;;1.50;;
11173;SDS011;5643;50.856;12.088;2022-12-26T08:11:05;2.30;;;1.47;;
11173;SDS011;5643;50.856;12.088;2022-12-26T08:13:34;1.60;;;1.50;;
11173;SDS011;5643;50.856;12.088;2022-12-26T08:16:03;2.00;;;1.90;;
11173;SDS011;5643;50.856;12.088;2022-12-26T08:18:31;2.30;;;2.10;;
11173;SDS011;5643;50.856;12.088;2022-12-26T08:20:59;2.40;;;1.90;;
11173;SDS011;5643;50.856;12.088;2022-12-26T08:23:28;1.70;;;1.60;;
11173;SDS011;5643;50.856;12.088;2022-12-26T08:25:55;2.20;;;2.00;;
11173;SDS011;5643;50.856;12.088;2022-12-26T08:28:23;2.03;;;1.80;;
11173;SDS011;5643;50.856;12.088;2022-12-26T08:30:51;1.37;;;1.27;;
11173;SDS011;5643;50.856;12.088;2022-12-26T08:33:19;1.70;;;1.60;;
11173;SDS011;5643;50.856;12.088;2022-12-26T08:35:46;1.53;;;1.43;;
11173;SDS011;5643;50.856;12.088;2022-12-26T08:38:13;2.87;;;2.10;;
11173;SDS011;5643;50.856;12.088;2022-12-26T08:40:42;1.77;;;1.67;;
11173;SDS011;5643;50.856;12.088;2022-12-26T08:43:09;1.50;;;1.40;;
11173;SDS011;5643;50.856;12.088;2022-12-26T08:45:37;1.60;;;1.50;;
11173;SDS011;5643;50.856;12.088;2022-12-26T08:48:05;1.60;;;1.50;;
11173;SDS011;5643;50.856;12.088;2022-12-26T08:50:33;1.40;;;1.30;;
11173;SDS011;5643;50.856;12.088;2022-12-26T08:53:00;1.47;;;1.37;;
11173;SDS011;5643;50.856;12.088;2022-12-26T08:55:27;1.53;;;1.43;;
11173;SDS011;5643;50.856;12.088;2022-12-26T08:57:55;1.60;;;1.27;;
11173;SDS011;5643;50.856;12.088;2022-12-26T09:00:24;2.17;;;1.30;;
11173;SDS011;5643;50.856;12.088;2022-12-26T09:02:51;1.70;;;1.43;;
11173;SDS011;5643;50.856;12.088;2022-12-26T09:05:20;1.53;;;1.43;;
11173;SDS011;5643;50.856;12.088;2022-12-26T09:07:48;2.50;;;1.77;;
11173;SDS011;5643;50.856;12.088;2022-12-26T09:10:15;1.70;;;1.60;;
11173;SDS011;5643;50.856;12.088;2022-12-26T09:12:45;1.63;;;1.53;;
11173;SDS011;5643;50.856;12.088;2022-12-26T09:15:13;1.53;;;1.43;;
11173;SDS011;5643;50.856;12.088;2022-12-26T09:17:40;1.60;;;1.33;;
11173;SDS011;5643;50.856;12.088;2022-12-26T09:20:08;1.40;;;1.30;;
11173;SDS011;5643;50.856;12.088;2022-12-26T09:22:37;1.53;;;1.43;;
11173;SDS011;5643;50.856;12.088;2022-12-26T09:25:18;1.83;;;1.40;;
11173;SDS011;5643;50.856;12.088;2022-12-26T09:27:45;2.07;;;1.80;;
11173;SDS011;5643;50.856;12.088;2022-12-26T09:30:12;1.70;;;1.60;;
11173;SDS011;5643;50.856;12.088;2022-12-26T09:32:40;1.50;;;1.40;;
11173;SDS011;5643;50.856;12.088;2022-12-26T09:35:08;1.40;;;1.30;;
11173;SDS011;5643;50.856;12.088;2022-12-26T09:37:37;1.50;;;1.40;;
11173;SDS011;5643;50.856;12.088;2022-12-26T09:40:05;1.80;;;1.40;;
11173;SDS011;5643;50.856;12.088;2022-12-26T09:42:38;1.70;;;1.60;;
11173;SDS011;5643;50.856;12.088;2022-12-26T09:45:10;1.20;;;1.20;;
11173;SDS011;5643;50.856;12.088;2022-12-26T09:47:41;1.47;;;1.27;;
11173;SDS011;5643;50.856;12.088;2022-12-26T09:50:14;1.20;;;1.10;;
11173;SDS011;5643;50.856;12.088;2022-12-26T09:52:46;1.37;;;1.20;;
11173;SDS011;5643;50.856;12.088;2022-12-26T09:55:29;1.50;;;1.40;;
11173;SDS011;5643;50.856;12.088;2022-12-26T09:57:59;1.60;;;1.30;;
11173;SDS011;5643;50.856;12.088;2022-12-26T10:00:32;1.00;;;1.00;;
11173;SDS011;5643;50.856;12.088;2022-12-26T10:03:03;1.40;;;1.30;;
11173;SDS011;5643;50.856;12.088;2022-12-26T10:05:35;1.57;;;1.47;;
11173;SDS011;5643;50.856;12.088;2022-12-26T10:08:11;1.50;;;1.40;;
11173;SDS011;5643;50.856;12.088;2022-12-26T10:10:41;1.47;;;1.37;;
11173;SDS011;5643;50.856;12.088;2022-12-26T10:13:13;1.37;;;1.27;;
11173;SDS011;5643;50.856;12.088;2022-12-26T10:15:44;1.70;;;1.60;;
11173;SDS011;5643;50.856;12.088;2022-12-26T10:18:17;1.43;;;1.30;;
11173;SDS011;5643;50.856;12.088;2022-12-26T10:20:53;1.60;;;1.33;;
11173;SDS011;5643;50.856;12.088;2022-12-26T10:23:32;1.67;;;1.40;;
11173;SDS011;5643;50.856;12.088;2022-12-26T13:26:45;0.50;;;0.50;;
11173;SDS011;5643;50.856;12.088;2022-12-26T13:29:15;0.40;;;0.40;;
11173;SDS011;5643;50.856;12.088;2022-12-26T13:31:43;0.43;;;0.43;;
11173;SDS011;5643;50.856;12.088;2022-12-26T13:34:13;0.70;;;0.43;;
11173;SDS011;5643;50.856;12.088;2022-12-26T13:36:43;0.40;;;0.40;;
11173;SDS011;5643;50.856;12.088;2022-12-26T13:39:28;0.53;;;0.40;;
11173;SDS011;5643;50.856;12.088;2022-12-26T13:42:00;0.73;;;0.40;;
11173;SDS011;5643;50.856;12.088;2022-12-26T13:44:45;0.60;;;0.60;;
11173;SDS011;5643;50.856;12.088;2022-12-26T13:47:31;0.50;;;0.50;;
11173;SDS011;5643;50.856;12.088;2022-12-26T13:52:41;0.73;;;0.73;;
11173;SDS011;5643;50.856;12.088;2022-12-26T13:58:06;0.60;;;0.60;;
11173;SDS011;5643;50.856;12.088;2022-12-26T14:00:41;0.57;;;0.57;;
11173;SDS011;5643;50.856;12.088;2022-12-26T14:03:21;0.77;;;0.67;;
11173;SDS011;5643;50.856;12.088;2022-12-26T14:08:41;0.90;;;0.80;;
11173;SDS011;5643;50.856;12.088;2022-12-26T14:11:17;0.80;;;0.80;;
11173;SDS011;5643;50.856;12.088;2022-12-26T14:13:53;0.70;;;0.70;;
11173;SDS011;5643;50.856;12.088;2022-12-26T14:16:24;0.90;;;0.90;;
11173;SDS011;5643;50.856;12.088;2022-12-26T14:18:56;0.70;;;0.70;;
11173;SDS011;5643;50.856;12.088;2022-12-26T14:24:16;0.83;;;0.83;;
11173;SDS011;5643;50.856;12.088;2022-12-26T17:02:00;0.97;;;0.70;;
11173;SDS011;5643;50.856;12.088;2022-12-26T17:04:30;0.60;;;0.60;;
11173;SDS011;5643;50.856;12.088;2022-12-26T17:06:58;0.60;;;0.60;;
11173;SDS011;5643;50.856;12.088;2022-12-26T17:09:28;0.90;;;0.90;;
11173;SDS011;5643;50.856;12.088;2022-12-26T17:11:58;0.87;;;0.87;;
11173;SDS011;5643;50.856;12.088;2022-12-26T17:14:27;0.77;;;0.77;;
11173;SDS011;5643;50.856;12.088;2022-12-26T17:17:01;0.80;;;0.70;;
11173;SDS011;5643;50.856;12.088;2022-12-26T17:19:30;0.90;;;0.73;;
11173;SDS011;5643;50.856;12.088;2022-12-26T17:24:49;0.70;;;0.70;;
11173;SDS011;5643;50.856;12.088;2022-12-26T17:27:18;0.80;;;0.80;;
11173;SDS011;5643;50.856;12.088;2022-12-26T17:29:52;1.07;;;0.93;;
11173;SDS011;5643;50.856;12.088;2022-12-26T17:32:27;1.27;;;0.70;;
11173;SDS011;5643;50.856;12.088;2022-12-26T17:35:03;0.97;;;0.80;;
11173;SDS011;5643;50.856;12.088;2022-12-26T20:37:26;0.20;;;0.20;;
11173;SDS011;5643;50.856;12.088;2022-12-26T20:39:54;0.30;;;0.30;;
11173;SDS011;5643;50.856;12.088;2022-12-26T20:42:24;0.20;;;0.20;;
11173;SDS011;5643;50.856;12.088;2022-12-26T20:44:52;0.50;;;0.50;;
11173;SDS011;5643;50.856;12.088;2022-12-26T20:47:19;0.30;;;0.30;;
11173;SDS011;5643;50.856;12.088;2022-12-26T20:49:47;0.40;;;0.40;;
11173;SDS011;5643;50.856;12.088;2022-12-26T20:52:15;0.40;;;0.40;;
11173;SDS011;5643;50.856;12.088;2022-12-26T20:54:44;0.30;;;0.30;;
11173;SDS011;5643;50.856;12.088;2022-12-26T20:57:11;0.40;;;0.40;;
11173;SDS011;5643;50.856;12.088;2022-12-26T20:59:39;0.50;;;0.40;;
11173;SDS011;5643;50.856;12.088;2022-12-26T21:02:06;0.43;;;0.43;;
11173;SDS011;5643;50.856;12.088;2022-12-26T21:04:33;0.40;;;0.40;;
11173;SDS011;5643;50.856;12.088;2022-12-26T21:07:01;0.40;;;0.40;;
11173;SDS011;5643;50.856;12.088;2022-12-26T21:09:28;0.50;;;0.50;;
11173;SDS011;5643;50.856;12.088;2022-12-26T21:11:56;0.60;;;0.60;;
11173;SDS011;5643;50.856;12.088;2022-12-26T21:14:24;0.50;;;0.50;;
11173;SDS011;5643;50.856;12.088;2022-12-26T21:16:52;0.67;;;0.50;;
11173;SDS011;5643;50.856;12.088;2022-12-26T21:19:20;0.80;;;0.40;;
11173;SDS011;5643;50.856;12.088;2022-12-26T21:21:48;0.30;;;0.30;;
11173;SDS011;5643;50.856;12.088;2022-12-26T21:24:16;0.70;;;0.40;;
11173;SDS011;5643;50.856;12.088;2022-12-26T21:26:43;1.87;;;0.90;;
11173;SDS011;5643;50.856;12.088;2022-12-26T21:29:13;1.90;;;1.00;;
11173;SDS011;5643;50.856;12.088;2022-12-26T21:31:41;1.20;;;1.00;;
11173;SDS011;5643;50.856;12.088;2022-12-26T21:34:09;1.10;;;1.10;;
11173;SDS011;5643;50.856;12.088;2022-12-26T21:36:38;1.60;;;1.37;;
11173;SDS011;5643;50.856;12.088;2022-12-26T21:39:07;1.40;;;1.30;;
11173;SDS011;5643;50.856;12.088;2022-12-26T21:41:35;1.20;;;1.10;;
11173;SDS011;5643;50.856;12.088;2022-12-26T21:44:02;2.10;;;1.30;;
11173;SDS011;5643;50.856;12.088;2022-12-26T21:46:34;1.53;;;1.27;;
11173;SDS011;5643;50.856;12.088;2022-12-26T21:49:01;1.37;;;1.10;;
11173;SDS011;5643;50.856;12.088;2022-12-26T21:51:31;1.60;;;1.50;;
11173;SDS011;5643;50.856;12.088;2022-12-26T21:53:59;1.80;;;1.40;;
11173;SDS011;5643;50.856;12.088;2022-12-26T21:56:41;1.43;;;1.33;;
11173;SDS011;5643;50.856;12.088;2022-12-26T21:59:09;1.17;;;1.10;;
11173;SDS011;5643;50.856;12.088;2022-12-26T22:01:55;2.03;;;1.40;;
11173;SDS011;5643;50.856;12.088;2022-12-26T22:04:22;2.33;;;1.70;;
11173;SDS011;5643;50.856;12.088;2022-12-26T22:06:49;2.23;;;1.50;;
11173;SDS011;5643;50.856;12.088;2022-12-26T22:09:19;1.83;;;1.30;;
11173;SDS011;5643;50.856;12.088;2022-12-26T22:11:46;1.70;;;1.27;;
11173;SDS011;5643;50.856;12.088;2022-12-26T22:14:31;1.33;;;1.23;;
11173;SDS011;5643;50.856;12.088;2022-12-26T22:17:01;1.53;;;1.40;;
11173;SDS011;5643;50.856;12.088;2022-12-26T22:19:28;1.30;;;1.20;;
11173;SDS011;5643;50.856;12.088;2022-12-26T22:22:00;1.03;;;1.03;;
11173;SDS011;5643;50.856;12.088;2022-12-26T22:24:28;1.40;;;1.30;;
11173;SDS011;5643;50.856;12.088;2022-12-26T22:26:55;1.20;;;1.10;;
11173;SDS011;5643;50.856;12.088;2022-12-26T22:29:22;1.63;;;1.33;;
11173;SDS011;5643;50.856;12.088;2022-12-26T22:31:50;1.27;;;1.10;;
11173;SDS011;5643;50.856;12.088;2022-12-26T22:34:19;2.60;;;1.60;;
11173;SDS011;5643;50.856;12.088;2022-12-26T22:36:46;1.00;;;1.00;;
11173;SDS011;5643;50.856;12.088;2022-12-26T22:39:13;1.27;;;1.10;;
11173;SDS011;5643;50.856;12.088;2022-12-26T22:41:42;1.33;;;1.23;;
11173;SDS011;5643;50.856;12.088;2022-12-26T22:44:10;1.80;;;1.50;;
11173;SDS011;5643;50.856;12.088;2022-12-26T22:46:37;1.87;;;1.77;;
11173;SDS011;5643;50.856;12.088;2022-12-26T22:49:04;1.80;;;1.70;;
11173;SDS011;5643;50.856;12.088;2022-12-26T22:51:33;1.50;;;1.40;;
11173;SDS011;5643;50.856;12.088;2022-12-26T22:54:00;1.73;;;1.50;;
11173;SDS011;5643;50.856;12.088;2022-12-26T22:56:28;1.90;;;1.70;;
11173;SDS011;5643;50.856;12.088;2022-12-26T22:58:56;2.17;;;2.00;;
11173;SDS011;5643;50.856;12.088;2022-12-26T23:01:25;3.00;;;2.43;;
11173;SDS011;5643;50.856;12.088;2022-12-26T23:03:52;3.27;;;2.90;;
11173;SDS011;5643;50.856;12.088;2022-12-26T23:06:20;2.97;;;2.70;;
11173;SDS011;5643;50.856;12.088;2022-12-26T23:08:50;3.00;;;2.70;;
11173;SDS011;5643;50.856;12.088;2022-12-26T23:11:19;3.77;;;2.60;;
11173;SDS011;5643;50.856;12.088;2022-12-26T23:13:47;2.63;;;2.33;;
11173;SDS011;5643;50.856;12.088;2022-12-26T23:16:18;3.90;;;2.80;;
11173;SDS011;5643;50.856;12.088;2022-12-26T23:18:49;3.00;;;2.70;;
11173;SDS011;5643;50.856;12.088;2022-12-26T23:21:36;3.57;;;2.63;;
11173;SDS011;5643;50.856;12.088;2022-12-26T23:24:12;3.03;;;2.80;;
11173;SDS011;5643;50.856;12.088;2022-12-26T23:26:42;2.20;;;2.10;;
11173;SDS011;5643;50.856;12.088;2022-12-26T23:29:10;4.27;;;3.10;;
11173;SDS011;5643;50.856;12.088;2022-12-26T23:31:55;3.77;;;2.70;;
11173;SDS011;5643;50.856;12.088;2022-12-26T23:34:22;2.50;;;2.30;;
11173;SDS011;5643;50.856;12.088;2022-12-26T23:36:49;2.33;;;2.23;;
11173;SDS011;5643;50.856;12.088;2022-12-26T23:39:18;2.67;;;2.47;;
11173;SDS011;5643;50.856;12.088;2022-12-26T23:41:46;2.23;;;2.03;;
11173;SDS011;5643;50.856;12.088;2022-12-26T23:44:14;2.60;;;2.40;;
11173;SDS011;5643;50.856;12.088;2022-12-26T23:46:41;2.33;;;2.13;;
11173;SDS011;5643;50.856;12.088;2022-12-26T23:49:10;2.20;;;2.00;;
11173;SDS011;5643;50.856;12.088;2022-12-26T23:51:38;3.00;;;2.20;;
11173;SDS011;5643;50.856;12.088;2022-12-26T23:54:05;2.23;;;2.10;;
11173;SDS011;5643;50.856;12.088;2022-12-26T23:56:35;2.50;;;2.30;;
11173;SDS011;5643;50.856;12.088;2022-12-26T23:59:03;2.40;;;2.20;;
